createdAt,value
2018-11-21T00:02:14.742Z,100545.00
2018-11-21T00:04:43.243Z,100537.91
2018-11-21T00:07:11.686Z,100535.90
2018-11-21T00:09:40.126Z,100533.83
2018-11-21T00:12:08.597Z,100539.25
2018-11-21T00:14:37.151Z,100540.09
2018-11-21T00:17:05.710Z,100544.77
2018-11-21T00:19:34.019Z,100537.16
2018-11-21T00:22:02.440Z,100538.42
2018-11-21T00:24:31.200Z,100532.62
2018-11-21T00:27:00.356Z,100535.89
2018-11-21T00:29:28.807Z,100533.38
2018-11-21T00:31:57.802Z,100527.11
2018-11-21T00:34:26.546Z,100528.84
2018-11-21T00:36:55.248Z,100528.41
2018-11-21T00:39:24.169Z,100531.73
2018-11-21T00:41:52.652Z,100530.52
2018-11-21T00:44:21.223Z,100526.83
2018-11-21T00:46:50.234Z,100533.00
2018-11-21T00:49:18.776Z,100530.09
2018-11-21T00:51:47.530Z,100540.19
2018-11-21T00:54:16.939Z,100545.61
2018-11-21T00:56:45.198Z,100550.75
2018-11-21T00:59:14.067Z,100545.23
2018-11-21T01:01:42.920Z,100548.13
2018-11-21T01:04:11.600Z,100543.50
2018-11-21T01:06:40.447Z,100540.94
2018-11-21T01:09:09.030Z,100546.81
2018-11-21T01:11:37.357Z,100547.75
2018-11-21T01:14:05.720Z,100548.59
2018-11-21T01:16:33.964Z,100548.45
2018-11-21T01:19:02.404Z,100546.03
2018-11-21T01:21:30.765Z,100550.98
2018-11-21T01:23:59.096Z,100556.02
2018-11-21T01:26:27.400Z,100562.33
2018-11-21T01:28:56.076Z,100554.34
2018-11-21T01:31:24.482Z,100561.49
2018-11-21T01:33:52.852Z,100555.60
2018-11-21T01:36:21.139Z,100557.28
2018-11-21T01:38:49.561Z,100559.05
2018-11-21T01:41:17.888Z,100553.55
2018-11-21T01:43:46.701Z,100565.31
2018-11-21T01:46:15.577Z,100560.69
2018-11-21T01:48:44.558Z,100558.59
2018-11-21T01:51:13.250Z,100556.53
2018-11-21T01:53:42.007Z,100554.39
2018-11-21T01:56:10.737Z,100557.42
2018-11-21T01:58:39.481Z,100556.45
2018-11-21T02:01:08.370Z,100553.22
2018-11-21T02:03:37.360Z,100564.02
2018-11-21T02:06:06.507Z,100558.68
2018-11-21T02:08:35.092Z,100564.15
2018-11-21T02:11:03.423Z,100561.12
2018-11-21T02:13:32.411Z,100565.36
2018-11-21T02:16:01.372Z,100565.36
2018-11-21T02:18:30.068Z,100568.77
2018-11-21T02:20:59.060Z,100566.67
2018-11-21T02:23:27.647Z,100575.55
2018-11-21T02:25:55.921Z,100583.05
2018-11-21T02:28:25.022Z,100565.50
2018-11-21T02:30:53.548Z,100567.13
2018-11-21T02:33:22.425Z,100562.75
2018-11-21T02:35:51.155Z,100569.05
2018-11-21T02:38:19.562Z,100561.62
2018-11-21T02:40:48.153Z,100563.68
2018-11-21T02:43:16.994Z,100559.86
2018-11-21T02:45:45.305Z,100565.02
2018-11-21T02:48:13.697Z,100566.25
2018-11-21T02:50:42.796Z,100566.30
2018-11-21T02:53:11.464Z,100570.88
2018-11-21T02:55:40.360Z,100572.13
2018-11-21T02:58:08.867Z,100577.13
2018-11-21T03:00:37.157Z,100567.98
2018-11-21T03:03:06.469Z,100573.91
2018-11-21T03:05:35.458Z,100577.22
2018-11-21T03:08:03.869Z,100574.23
2018-11-21T03:10:32.190Z,100569.61
2018-11-21T03:13:01.098Z,100577.17
2018-11-21T03:15:29.861Z,100581.84
2018-11-21T03:17:58.661Z,100579.74
2018-11-21T03:20:27.759Z,100584.84
2018-11-21T03:22:56.873Z,100586.84
2018-11-21T03:25:25.494Z,100598.71
2018-11-21T03:27:54.159Z,100596.56
2018-11-21T03:30:23.169Z,100603.80
2018-11-21T03:32:51.923Z,100612.25
2018-11-21T03:35:20.685Z,100620.61
2018-11-21T03:37:49.745Z,100618.46
2018-11-21T03:40:18.813Z,100626.97
2018-11-21T03:42:47.159Z,100624.91
2018-11-21T03:45:15.969Z,100627.80
2018-11-21T03:47:44.631Z,100622.81
2018-11-21T03:50:13.427Z,100625.71
2018-11-21T03:52:42.182Z,100623.14
2018-11-21T03:55:11.187Z,100626.91
2018-11-21T03:57:40.005Z,100624.82
2018-11-21T04:00:13.282Z,100629.39
2018-11-21T04:02:42.586Z,100632.77
2018-11-21T04:05:12.511Z,100635.80
2018-11-21T04:07:40.871Z,100637.89
2018-11-21T04:10:11.355Z,100632.47
2018-11-21T04:12:39.730Z,100640.93
2018-11-21T04:15:09.920Z,100643.31
2018-11-21T04:17:38.422Z,100650.46
2018-11-21T04:20:07.287Z,100647.94
2018-11-21T04:22:35.760Z,100652.66
2018-11-21T04:25:04.501Z,100647.19
2018-11-21T04:27:32.909Z,100636.73
2018-11-21T04:30:01.268Z,100631.64
2018-11-21T04:32:29.514Z,100632.02
2018-11-21T04:34:57.904Z,100633.73
2018-11-21T04:37:26.319Z,100641.26
2018-11-21T04:39:54.698Z,100636.77
2018-11-21T04:42:23.332Z,100637.20
2018-11-21T04:44:51.611Z,100639.72
2018-11-21T04:47:20.087Z,100647.15
2018-11-21T04:49:48.550Z,100651.02
2018-11-21T04:52:17.027Z,100657.71
2018-11-21T04:54:45.732Z,100660.65
2018-11-21T04:57:14.068Z,100655.65
2018-11-21T04:59:42.520Z,100653.04
2018-11-21T05:02:10.849Z,100657.81
2018-11-21T05:04:39.500Z,100669.16
2018-11-21T05:07:08.465Z,100674.61
2018-11-21T05:09:37.179Z,100678.50
2018-11-21T05:12:05.898Z,100683.44
2018-11-21T05:14:35.422Z,100683.83
2018-11-21T05:17:04.059Z,100688.55
2018-11-21T05:19:32.611Z,100690.75
2018-11-21T05:22:01.428Z,100690.32
2018-11-21T05:24:29.887Z,100702.00
2018-11-21T05:26:58.682Z,100707.09
2018-11-21T05:29:27.284Z,100708.41
2018-11-21T05:31:55.764Z,100715.09
2018-11-21T05:34:24.350Z,100710.92
2018-11-21T05:36:52.685Z,100709.89
2018-11-21T05:39:21.110Z,100704.89
2018-11-21T05:41:49.573Z,100707.84
2018-11-21T05:44:17.981Z,100711.30
2018-11-21T05:46:46.299Z,100713.45
2018-11-21T05:49:14.715Z,100713.88
2018-11-21T05:51:43.076Z,100715.97
2018-11-21T05:54:11.382Z,100723.91
2018-11-21T05:56:39.795Z,100721.77
2018-11-21T05:59:08.175Z,100735.69
2018-11-21T06:01:36.610Z,100740.27
2018-11-21T06:04:04.858Z,100741.00
2018-11-21T06:06:33.171Z,100741.06
2018-11-21T06:09:01.654Z,100731.84
2018-11-21T06:11:30.649Z,100739.00
2018-11-21T06:13:58.987Z,100740.05
2018-11-21T06:16:28.485Z,100744.73
2018-11-21T06:18:57.077Z,100747.77
2018-11-21T06:21:25.663Z,100751.93
2018-11-21T06:23:54.355Z,100756.31
2018-11-21T06:26:23.267Z,100756.36
2018-11-21T06:28:51.883Z,100755.68
2018-11-21T06:31:20.668Z,100754.36
2018-11-21T06:33:49.501Z,100761.09
2018-11-21T06:36:21.106Z,100770.38
2018-11-21T06:38:49.611Z,100774.10
2018-11-21T06:41:18.526Z,100775.42
2018-11-21T06:43:51.409Z,100777.05
2018-11-21T06:46:20.917Z,100782.21
2018-11-21T06:48:50.516Z,100789.36
2018-11-21T06:51:18.952Z,100792.25
2018-11-21T06:53:47.512Z,100793.81
2018-11-21T06:56:15.836Z,100794.18
2018-11-21T06:58:44.492Z,100802.69
2018-11-21T07:01:13.132Z,100807.31
2018-11-21T07:03:41.601Z,100808.64
2018-11-21T07:06:10.219Z,100815.11
2018-11-21T07:08:38.615Z,100811.62
2018-11-21T07:11:07.237Z,100820.98
2018-11-21T07:13:35.841Z,100813.78
2018-11-21T07:16:04.502Z,100824.81
2018-11-21T07:18:32.980Z,100826.55
2018-11-21T07:21:02.115Z,100828.71
2018-11-21T07:23:30.630Z,100835.77
2018-11-21T07:25:59.216Z,100834.13
2018-11-21T07:28:27.720Z,100839.17
2018-11-21T07:30:56.267Z,100840.06
2018-11-21T07:33:24.795Z,100838.44
2018-11-21T07:35:53.416Z,100842.77
2018-11-21T07:38:22.223Z,100839.86
2018-11-21T07:40:50.810Z,100851.27
2018-11-21T07:43:19.432Z,100844.01
2018-11-21T07:45:47.934Z,100847.42
2018-11-21T07:48:20.340Z,100846.53
2018-11-21T07:50:45.609Z,100851.53
2018-11-21T07:53:14.341Z,100863.77
2018-11-21T07:55:43.184Z,100852.33
2018-11-21T07:58:13.955Z,100861.30
2018-11-21T08:00:57.487Z,100864.20
2018-11-21T08:03:27.995Z,100865.08
2018-11-21T08:06:02.601Z,100870.24
2018-11-21T08:08:51.837Z,100868.56
2018-11-21T08:11:37.852Z,100871.94
2018-11-21T08:14:31.318Z,100864.57
2018-11-21T08:17:18.734Z,100861.56
2018-11-21T08:20:07.122Z,100860.77
2018-11-21T08:22:53.064Z,100868.16
2018-11-21T08:25:39.309Z,100864.19
2018-11-21T08:28:35.646Z,100862.62
2018-11-21T08:31:04.053Z,100862.42
2018-11-21T08:33:34.094Z,100870.26
2018-11-21T08:36:01.152Z,100871.09
2018-11-21T08:38:29.519Z,100869.98
2018-11-21T08:40:57.973Z,100867.69
2018-11-21T08:43:26.299Z,100870.53
2018-11-21T08:45:54.635Z,100865.05
2018-11-21T08:48:23.480Z,100869.25
2018-11-21T08:50:52.235Z,100867.69
2018-11-21T08:53:21.434Z,100874.52
2018-11-21T08:55:50.501Z,100870.05
2018-11-21T08:58:19.217Z,100882.92
2018-11-21T09:00:49.049Z,100881.71
2018-11-21T09:03:18.248Z,100876.14
2018-11-21T09:05:46.908Z,100880.87
2018-11-21T09:08:15.769Z,100885.72
2018-11-21T09:10:44.626Z,100890.23
2018-11-21T09:13:14.198Z,100897.54
2018-11-21T09:15:43.169Z,100899.01
2018-11-21T09:18:11.848Z,100898.64
2018-11-21T09:20:40.423Z,100905.31
2018-11-21T09:23:09.510Z,100899.92
2018-11-21T09:25:38.456Z,100895.28
2018-11-21T09:28:07.410Z,100900.27
2018-11-21T09:30:36.132Z,100903.39
2018-11-21T09:33:05.147Z,100906.21
2018-11-21T09:35:34.086Z,100907.42
2018-11-21T09:38:02.548Z,100912.05
2018-11-21T09:40:31.562Z,100910.36
2018-11-21T09:43:00.010Z,100911.67
2018-11-21T09:45:28.319Z,100914.05
2018-11-21T09:47:56.683Z,100919.98
2018-11-21T09:50:26.862Z,100912.06
2018-11-21T09:52:55.551Z,100920.16
2018-11-21T09:55:23.876Z,100925.14
2018-11-21T09:57:52.264Z,100925.57
2018-11-21T10:00:56.976Z,100930.62
2018-11-21T10:03:27.719Z,100933.08
2018-11-21T10:05:59.013Z,100936.56
2018-11-21T10:08:40.435Z,100944.34
2018-11-21T10:11:09.639Z,100940.58
2018-11-21T10:13:38.031Z,100939.36
2018-11-21T10:16:07.251Z,100939.25
2018-11-21T10:18:36.714Z,100940.03
2018-11-21T10:21:06.947Z,100945.72
2018-11-21T10:23:35.558Z,100943.93
2018-11-21T10:26:04.377Z,100951.50
2018-11-21T10:28:32.751Z,100953.06
2018-11-21T10:31:01.166Z,100951.92
2018-11-21T10:33:29.742Z,100959.92
2018-11-21T10:35:58.257Z,100950.66
2018-11-21T10:38:26.813Z,100961.97
2018-11-21T10:40:55.164Z,100961.02
2018-11-21T10:43:26.428Z,100961.55
2018-11-21T10:45:52.583Z,100958.48
2018-11-21T10:48:21.176Z,100955.66
2018-11-21T10:50:49.565Z,100953.71
2018-11-21T10:53:18.633Z,100950.24
2018-11-21T10:55:47.853Z,100948.13
2018-11-21T10:58:16.608Z,100953.25
2018-11-21T11:01:03.543Z,100950.66
2018-11-21T11:03:40.035Z,100951.02
2018-11-21T11:06:26.324Z,100947.88
2018-11-21T11:09:12.692Z,100957.67
2018-11-21T11:12:00.193Z,100953.52
2018-11-21T11:14:50.195Z,100952.09
2018-11-21T11:17:36.449Z,100948.31
2018-11-21T11:20:24.650Z,100954.42
2018-11-21T11:23:10.714Z,100956.98
2018-11-21T11:26:06.969Z,100951.57
2018-11-21T11:28:52.940Z,100959.30
2018-11-21T11:31:29.069Z,100958.09
2018-11-21T11:34:27.461Z,100960.45
2018-11-21T11:37:24.041Z,100953.89
2018-11-21T11:40:10.235Z,100961.93
2018-11-21T11:43:00.345Z,100970.28
2018-11-21T11:45:47.815Z,100968.77
2018-11-21T11:48:47.427Z,100959.03
2018-11-21T11:51:43.592Z,100965.53
2018-11-21T11:54:30.134Z,100973.84
2018-11-21T11:57:17.618Z,100967.50
2018-11-21T12:00:20.312Z,100972.14
2018-11-21T12:03:13.736Z,100970.34
2018-11-21T12:06:06.653Z,100973.47
2018-11-21T12:08:47.619Z,100978.08
2018-11-21T12:11:30.999Z,100976.77
2018-11-21T12:14:23.120Z,100973.82
2018-11-21T12:17:10.562Z,100983.31
2018-11-21T12:20:00.993Z,100983.68
2018-11-21T12:22:46.883Z,100979.52
2018-11-21T12:25:43.069Z,100974.11
2018-11-21T12:28:29.307Z,100981.78
2018-11-21T12:31:22.333Z,100979.99
2018-11-21T12:34:07.945Z,100977.53
2018-11-21T12:36:54.342Z,100975.47
2018-11-21T12:39:41.794Z,100971.79
2018-11-21T12:42:26.307Z,100971.74
2018-11-21T12:45:16.358Z,100978.21
2018-11-21T12:48:02.425Z,100969.59
2018-11-21T12:50:55.610Z,100969.69
2018-11-21T12:53:49.204Z,100975.15
2018-11-21T12:56:35.386Z,100974.80
2018-11-21T12:59:37.990Z,100976.41
2018-11-21T13:02:24.149Z,100980.74
2018-11-21T13:05:09.595Z,100981.16
2018-11-21T13:08:03.949Z,100975.69
2018-11-21T13:10:49.971Z,100967.43
2018-11-21T13:13:35.847Z,100965.73
2018-11-21T13:16:22.009Z,100965.84
2018-11-21T13:19:15.386Z,100964.95
2018-11-21T13:22:02.788Z,100963.47
2018-11-21T13:24:40.929Z,100967.41
2018-11-21T13:27:27.122Z,100971.89
2018-11-21T13:30:13.039Z,100973.36
2018-11-21T13:33:03.829Z,100974.36
2018-11-21T13:35:44.595Z,100972.30
2018-11-21T13:38:38.485Z,100976.63
2018-11-21T13:41:25.895Z,100981.84
2018-11-21T13:44:13.419Z,100980.95
2018-11-21T13:46:59.461Z,100986.69
2018-11-21T13:49:45.741Z,100984.42
2018-11-21T13:52:25.686Z,100984.48
2018-11-21T13:54:58.255Z,100985.84
2018-11-21T13:57:26.980Z,100980.79
2018-11-21T13:59:55.754Z,100990.52
2018-11-21T14:02:24.094Z,100985.36
2018-11-21T14:04:52.519Z,100985.00
2018-11-21T14:07:20.787Z,100982.00
2018-11-21T14:09:49.216Z,100984.90
2018-11-21T14:12:17.617Z,100991.26
2018-11-21T14:14:45.999Z,100981.59
2018-11-21T14:17:14.453Z,100985.80
2018-11-21T14:19:42.906Z,100981.94
2018-11-21T14:22:11.157Z,100976.31
2018-11-21T14:24:39.690Z,100976.36
2018-11-21T14:27:07.989Z,100978.80
2018-11-21T14:29:36.284Z,100982.33
2018-11-21T14:32:05.188Z,100982.84
2018-11-21T14:34:34.010Z,100990.41
2018-11-21T14:37:03.473Z,100984.09
2018-11-21T14:39:31.806Z,100987.84
2018-11-21T14:42:00.172Z,100983.11
2018-11-21T14:44:28.627Z,100988.98
2018-11-21T14:46:58.174Z,100983.57
2018-11-21T14:49:26.513Z,100989.52
2018-11-21T14:51:55.208Z,100994.68
2018-11-21T14:54:23.527Z,100990.94
2018-11-21T14:56:51.884Z,100987.15
2018-11-21T14:59:20.268Z,100993.47
2018-11-21T15:01:48.599Z,100993.96
2018-11-21T15:04:17.087Z,100996.48
2018-11-21T15:06:45.484Z,101001.17
2018-11-21T15:09:14.332Z,101003.58
2018-11-21T15:11:43.023Z,101002.20
2018-11-21T15:14:11.274Z,101015.31
2018-11-21T15:16:39.707Z,101013.14
2018-11-21T15:19:08.078Z,101006.20
2018-11-21T15:21:36.362Z,101019.47
2018-11-21T15:24:04.808Z,101017.30
2018-11-21T15:26:33.104Z,101022.78
2018-11-21T15:29:01.474Z,101025.86
2018-11-21T15:31:29.882Z,101024.59
2018-11-21T15:33:58.621Z,101017.87
2018-11-21T15:36:28.392Z,101027.50
2018-11-21T15:38:56.851Z,101027.13
2018-11-21T15:41:24.988Z,101022.39
2018-11-21T15:43:53.642Z,101030.33
2018-11-21T15:46:22.374Z,101030.49
2018-11-21T15:48:51.237Z,101032.66
2018-11-21T15:51:19.988Z,101034.18
2018-11-21T15:53:48.451Z,101033.02
2018-11-21T15:56:16.758Z,101036.69
2018-11-21T15:58:45.424Z,101037.53
2018-11-21T16:01:13.613Z,101042.80
2018-11-21T16:03:41.980Z,101042.95
2018-11-21T16:06:10.310Z,101043.91
2018-11-21T16:08:38.810Z,101051.59
2018-11-21T16:11:07.270Z,101048.70
2018-11-21T16:13:35.669Z,101050.77
2018-11-21T16:16:04.003Z,101055.28
2018-11-21T16:18:32.368Z,101057.01
2018-11-21T16:21:00.761Z,101056.06
2018-11-21T16:23:29.200Z,101056.52
2018-11-21T16:25:57.703Z,101056.04
2018-11-21T16:28:26.231Z,101058.64
2018-11-21T16:30:54.574Z,101065.73
2018-11-21T16:33:22.908Z,101062.38
2018-11-21T16:35:51.371Z,101066.52
2018-11-21T16:38:19.678Z,101072.35
2018-11-21T16:40:48.034Z,101073.91
2018-11-21T16:43:16.419Z,101069.83
2018-11-21T16:45:46.895Z,101078.66
2018-11-21T16:48:15.252Z,101082.77
2018-11-21T16:50:43.730Z,101092.12
2018-11-21T16:53:11.993Z,101090.02
2018-11-21T16:55:40.476Z,101089.66
2018-11-21T16:58:08.800Z,101090.39
2018-11-21T17:00:37.242Z,101095.44
2018-11-21T17:03:05.776Z,101098.02
2018-11-21T17:05:34.196Z,101096.99
2018-11-21T17:08:02.642Z,101099.95
2018-11-21T17:10:31.774Z,101097.71
2018-11-21T17:13:00.138Z,101099.41
2018-11-21T17:15:30.156Z,101098.00
2018-11-21T17:17:58.461Z,101095.55
2018-11-21T17:20:28.702Z,101099.14
2018-11-21T17:22:57.919Z,101100.23
2018-11-21T17:25:28.443Z,101107.33
2018-11-21T17:27:56.841Z,101117.06
2018-11-21T17:30:25.407Z,101109.38
2018-11-21T17:32:54.078Z,101109.00
2018-11-21T17:35:22.993Z,101110.84
2018-11-21T17:37:51.860Z,101115.25
2018-11-21T17:40:28.913Z,101116.28
2018-11-21T17:42:57.647Z,101118.49
2018-11-21T17:45:26.030Z,101119.57
2018-11-21T17:47:54.395Z,101120.83
2018-11-21T17:50:23.813Z,101111.77
2018-11-21T17:52:54.433Z,101114.30
2018-11-21T17:55:24.508Z,101116.39
2018-11-21T17:57:52.840Z,101124.14
2018-11-21T18:00:22.747Z,101123.26
2018-11-21T18:02:51.131Z,101120.73
2018-11-21T18:05:21.007Z,101129.63
2018-11-21T18:07:49.411Z,101129.75
2018-11-21T18:10:19.213Z,101123.78
2018-11-21T18:12:47.791Z,101124.98
2018-11-21T18:15:16.974Z,101126.66
2018-11-21T18:17:49.189Z,101126.53
2018-11-21T18:20:18.267Z,101129.08
2018-11-21T18:22:47.376Z,101127.81
2018-11-21T18:25:20.377Z,101126.17
2018-11-21T18:27:57.904Z,101129.55
2018-11-21T18:30:27.770Z,101128.00
2018-11-21T18:32:56.193Z,101129.19
2018-11-21T18:35:25.589Z,101129.96
2018-11-21T18:37:54.363Z,101134.48
2018-11-21T18:40:25.424Z,101136.16
2018-11-21T18:42:54.742Z,101141.15
2018-11-21T18:45:29.866Z,101139.89
2018-11-21T18:47:58.363Z,101146.72
2018-11-21T18:50:26.737Z,101147.46
2018-11-21T18:52:56.570Z,101148.83
2018-11-21T18:55:27.675Z,101151.36
2018-11-21T18:58:39.258Z,101148.16
2018-11-21T19:01:07.555Z,101151.16
2018-11-21T19:03:36.094Z,101157.83
2018-11-21T19:06:04.748Z,101154.48
2018-11-21T19:08:33.384Z,101158.55
2018-11-21T19:11:02.078Z,101155.03
2018-11-21T19:13:31.222Z,101163.04
2018-11-21T19:15:59.909Z,101160.88
2018-11-21T19:18:29.026Z,101161.50
2018-11-21T19:20:57.678Z,101162.30
2018-11-21T19:23:26.043Z,101165.73
2018-11-21T19:25:55.098Z,101162.30
2018-11-21T19:28:24.217Z,101161.39
2018-11-21T19:30:52.807Z,101167.65
2018-11-21T19:33:21.334Z,101160.66
2018-11-21T19:35:49.914Z,101158.45
2018-11-21T19:38:20.098Z,101164.19
2018-11-21T19:40:48.019Z,101166.35
2018-11-21T19:43:16.350Z,101164.73
2018-11-21T19:45:45.626Z,101157.61
2018-11-21T19:48:14.063Z,101164.10
2018-11-21T19:50:42.515Z,101165.01
2018-11-21T19:53:11.323Z,101167.77
2018-11-21T19:55:39.991Z,101166.02
2018-11-21T19:58:08.599Z,101170.29
2018-11-21T20:00:38.096Z,101167.77
2018-11-21T20:03:07.033Z,101168.59
2018-11-21T20:05:35.999Z,101174.78
2018-11-21T20:08:04.598Z,101181.41
2018-11-21T20:10:33.571Z,101169.88
2018-11-21T20:13:02.170Z,101169.73
2018-11-21T20:15:30.498Z,101163.20
2018-11-21T20:18:00.618Z,101170.70
2018-11-21T20:20:29.120Z,101163.34
2018-11-21T20:22:57.388Z,101165.55
2018-11-21T20:25:26.881Z,101166.02
2018-11-21T20:27:55.368Z,101155.87
2018-11-21T20:30:25.357Z,101160.51
2018-11-21T20:32:55.151Z,101157.11
2018-11-21T20:35:23.549Z,101152.42
2018-11-21T20:37:52.288Z,101154.20
2018-11-21T20:40:23.091Z,101162.23
2018-11-21T20:42:51.763Z,101160.51
2018-11-21T20:45:21.691Z,101156.93
2018-11-21T20:47:51.113Z,101155.67
2018-11-21T20:50:19.489Z,101157.40
2018-11-21T20:52:48.573Z,101148.64
